Terminal Aerodrome Forecast
Issued by NWS Brownsville, TX

Home | Current Version | Previous Version | Text Only | Print | Product List | Glossary On
Versions: 1 2 3 4 5 6 7 8 9 10 11 12 13 14 15 16 17 18 19 20 21 22 23 24 25 26 27
000
FTUS44 KBRO 291254 AAA
TAFBRO
TAF AMD
KBRO 291254Z 2913/3012 14015G27KT 5SM BR BKN012 WS020/16050KT
     FM291600 16022G27KT 6SM HZ BKN040
     FM300200 15015G20KT 6SM HZ BKN025
     FM300500 15010KT 6SM BR BKN010=

USA.gov is the U.S. government's official web portal to all federal, state and local government web resources and services.